createdAt,value
2023-04-18T00:09:24.532Z,5.73
2023-04-18T00:19:26.776Z,6.47
2023-04-18T00:29:29.323Z,5.83
2023-04-18T00:39:31.404Z,5.70
2023-04-18T00:49:33.635Z,4.83
2023-04-18T00:59:35.752Z,5.03
2023-04-18T01:09:37.887Z,4.67
2023-04-18T01:19:40.737Z,4.50
2023-04-18T01:29:42.861Z,4.30
2023-04-18T01:39:45.106Z,4.07
2023-04-18T01:49:48.349Z,3.67
2023-04-18T01:59:50.629Z,3.00
2023-04-18T02:09:53.765Z,3.50
2023-04-18T02:19:56.034Z,3.57
2023-04-18T02:29:58.196Z,3.60
2023-04-18T02:40:00.300Z,3.13
2023-04-18T02:50:06.453Z,3.43
2023-04-18T03:00:10.119Z,3.43
2023-04-18T03:10:42.504Z,3.73
2023-04-18T03:20:45.380Z,3.90
2023-04-18T03:30:47.867Z,4.27
2023-04-18T03:40:50.615Z,4.30
2023-04-18T03:51:00.774Z,4.60
2023-04-18T04:01:03.306Z,4.30
2023-04-18T04:11:05.851Z,4.57
2023-04-18T04:21:08.818Z,5.60
2023-04-18T04:31:19.927Z,7.13
2023-04-18T04:41:22.757Z,6.30
2023-04-18T04:51:26.010Z,7.40
2023-04-18T05:01:28.488Z,8.10
2023-04-18T05:11:31.132Z,7.17
2023-04-18T05:21:33.421Z,7.43
2023-04-18T05:31:36.275Z,6.13
2023-04-18T05:41:38.514Z,6.67
2023-04-18T05:51:41.002Z,6.13
2023-04-18T06:01:43.561Z,6.57
2023-04-18T06:11:45.677Z,6.60
2023-04-18T06:21:48.835Z,7.13
2023-04-18T06:31:52.025Z,7.13
2023-04-18T06:41:54.182Z,8.20
2023-04-18T06:52:03.604Z,7.90
2023-04-18T07:02:05.705Z,8.13
2023-04-18T07:12:07.873Z,9.50
2023-04-18T07:22:10.261Z,10.70
2023-04-18T07:32:12.453Z,9.87
2023-04-18T07:42:14.721Z,9.90
2023-04-18T07:52:16.807Z,8.70
2023-04-18T08:02:18.922Z,8.40
2023-04-18T08:12:21.086Z,7.75
2023-04-18T08:22:23.210Z,7.70
2023-04-18T08:32:25.865Z,7.70
2023-04-18T08:42:28.018Z,8.40
2023-04-18T08:52:31.087Z,8.87
2023-04-18T09:02:42.786Z,8.87
2023-04-18T09:12:52.376Z,8.83
2023-04-18T09:22:57.967Z,9.67
2023-04-18T09:33:01.733Z,9.43
2023-04-18T09:43:19.983Z,9.10
2023-04-18T09:53:22.853Z,9.80
2023-04-18T10:03:28.952Z,10.67
2023-04-18T10:13:32.007Z,9.70
2023-04-18T10:23:36.483Z,10.07
2023-04-18T10:33:42.557Z,9.85
2023-04-18T10:44:23.696Z,12.47
2023-04-18T10:54:47.984Z,10.60
2023-04-18T11:04:57.298Z,11.77
2023-04-18T11:15:01.378Z,11.00
2023-04-18T11:25:09.926Z,11.63
2023-04-18T11:35:13.426Z,11.53
2023-04-18T11:45:15.916Z,11.05
2023-04-18T11:55:25.164Z,11.37
2023-04-18T12:05:34.793Z,10.93
2023-04-18T12:15:43.469Z,11.03
2023-04-18T12:25:45.677Z,10.17
2023-04-18T12:35:49.535Z,10.80
2023-04-18T12:45:52.156Z,10.47
2023-04-18T12:55:54.285Z,10.40
2023-04-18T13:05:56.321Z,9.70
2023-04-18T13:15:58.523Z,10.52
2023-04-18T13:26:00.808Z,11.05
2023-04-18T13:36:03.219Z,11.15
2023-04-18T13:46:05.478Z,10.40
2023-04-18T13:56:07.891Z,9.97
2023-04-18T14:06:10.117Z,11.57
2023-04-18T14:16:12.473Z,10.50
2023-04-18T14:26:14.820Z,9.88
2023-04-18T14:36:17.539Z,10.77
2023-04-18T14:46:25.580Z,10.88
2023-04-18T14:56:28.038Z,10.10
2023-04-18T15:06:30.422Z,10.27
2023-04-18T15:16:32.629Z,9.70
2023-04-18T15:26:34.798Z,9.40
2023-04-18T15:36:37.185Z,9.50
2023-04-18T15:46:39.530Z,9.85
2023-04-18T15:56:43.830Z,8.82
2023-04-18T16:06:45.913Z,8.77
2023-04-18T16:16:48.032Z,10.38
2023-04-18T16:26:52.134Z,9.40
2023-04-18T16:36:55.634Z,9.77
2023-04-18T16:46:58.006Z,10.43
2023-04-18T16:57:00.839Z,10.70
2023-04-18T17:07:02.974Z,11.30
2023-04-18T17:17:06.173Z,10.45
2023-04-18T17:27:08.510Z,10.50
2023-04-18T17:37:11.510Z,10.63
2023-04-18T17:47:19.248Z,10.30
2023-04-18T17:57:22.805Z,10.27
2023-04-18T18:07:24.933Z,10.48
2023-04-18T18:17:29.141Z,10.73
2023-04-18T18:27:31.428Z,9.48
2023-04-18T18:37:33.843Z,9.80
2023-04-18T18:47:38.949Z,11.10
2023-04-18T18:57:45.351Z,10.40
2023-04-18T19:07:48.237Z,12.30
2023-04-18T19:17:50.524Z,11.20
2023-04-18T19:27:52.738Z,10.00
2023-04-18T19:38:01.296Z,9.20
2023-04-18T19:48:03.973Z,9.83
2023-04-18T19:58:06.243Z,10.37
2023-04-18T20:08:08.411Z,9.13
2023-04-18T20:18:10.794Z,9.00
2023-04-18T20:28:12.869Z,9.43
2023-04-18T20:38:15.359Z,9.73
2023-04-18T20:48:18.148Z,10.18
2023-04-18T20:58:20.737Z,9.50
2023-04-18T21:08:22.926Z,9.10
2023-04-18T21:18:25.178Z,9.48
2023-04-18T21:28:27.300Z,9.33
2023-04-18T21:38:29.413Z,9.40
2023-04-18T21:48:31.982Z,9.20
2023-04-18T21:58:34.303Z,10.17
2023-04-18T22:08:36.667Z,10.17
2023-04-18T22:18:38.884Z,9.20
2023-04-18T22:28:41.158Z,9.15
2023-04-18T22:38:43.269Z,10.00
2023-04-18T22:48:46.219Z,9.40
2023-04-18T22:58:48.301Z,10.00
2023-04-18T23:08:50.355Z,9.77
2023-04-18T23:18:52.392Z,9.97
2023-04-18T23:28:54.487Z,10.23
2023-04-18T23:38:56.595Z,12.07
2023-04-18T23:48:58.696Z,12.03
2023-04-18T23:59:00.814Z,11.40
